Time,TemperatureF,DewpointF,PressureIn,WindDirection,WindDirectionDegrees,WindSpeedMPH,WindSpeedGustMPH,Humidity,HourlyPrecipIn,Conditions,Clouds,dailyrainin,SoftwareType,DateUTC
2013-07-16 00:38:00,77.1,70.6,30.06,SSW,203,0.0,0.0,80,0.00,,,0.00,WUHU21623XXSP,2013-07-16 04:38:00,
2013-07-16 01:38:00,76.0,70.2,30.05,SSW,203,0.0,0.0,82,0.00,,,0.00,WUHU21623XXSP,2013-07-16 05:38:00,
2013-07-16 02:38:00,74.8,69.7,30.05,SSW,203,0.0,0.0,84,0.00,,,0.00,WUHU21623XXSP,2013-07-16 06:38:00,
2013-07-16 03:38:00,74.8,70.4,30.05,SSW,203,0.0,0.0,86,0.00,,,0.00,WUHU21623XXSP,2013-07-16 07:38:00,
2013-07-16 04:38:00,73.9,69.5,30.05,SSW,203,0.0,0.0,86,0.00,,,0.00,WUHU21623XXSP,2013-07-16 08:38:00,
2013-07-16 05:38:00,73.0,68.9,30.06,SW,225,0.0,0.0,87,0.00,,,0.00,WUHU21623XXSP,2013-07-16 09:38:00,
2013-07-16 06:38:00,72.6,68.8,30.07,SW,225,0.0,0.0,88,0.00,,,0.00,WUHU21623XXSP,2013-07-16 10:38:00,
2013-07-16 07:38:00,78.0,73.5,30.08,South,180,0.0,0.0,86,0.00,,,0.00,WUHU21623XXSP,2013-07-16 11:38:00,
2013-07-16 08:38:00,83.4,74.0,30.08,SSW,203,0.0,0.0,73,0.00,,,0.00,WUHU21623XXSP,2013-07-16 12:38:00,
2013-07-16 09:38:00,83.8,74.4,30.08,WSW,248,0.0,0.0,73,0.00,,,0.00,WUHU21623XXSP,2013-07-16 13:38:00,
2013-07-16 10:38:00,86.7,75.6,30.08,South,180,6.9,6.9,69,0.00,,,0.00,WUHU21623XXSP,2013-07-16 14:38:00,
2013-07-16 11:17:00,88.3,75.8,30.08,West,270,0.0,0.0,66,0.00,,,0.00,WUHU21623XXSP,2013-07-16 15:17:00,
2013-07-16 11:22:00,88.5,76.0,30.08,NNW,337,5.1,5.1,66,0.00,,,0.01,WUHU21623XXSP,2013-07-16 15:22:00,
2013-07-16 11:27:00,88.5,75.5,30.08,North,0,6.5,6.5,65,0.00,,,0.01,WUHU21623XXSP,2013-07-16 15:27:00,
2013-07-16 11:32:00,88.5,76.0,30.08,SSW,202,0.0,26.6,66,0.00,,,0.01,WUHU21623XXSP,2013-07-16 15:32:00,
2013-07-16 11:37:00,88.6,75.6,30.08,NNE,22,1.3,26.6,65,0.00,,,0.01,WUHU21623XXSP,2013-07-16 15:37:00,
2013-07-16 11:42:00,88.6,75.6,30.08,West,270,26.6,26.6,65,0.00,,,0.01,WUHU21623XXSP,2013-07-16 15:42:00,
2013-07-16 11:47:00,88.8,75.3,30.08,WNW,292,26.2,27.7,64,0.00,,,0.01,WUHU21623XXSP,2013-07-16 15:47:00,
2013-07-16 11:52:00,89.0,75.5,30.08,NW,315,2.5,27.7,64,0.00,,,0.01,WUHU21623XXSP,2013-07-16 15:52:00,
2013-07-16 11:57:00,89.2,75.7,30.07,NNW,337,1.1,2.5,64,0.00,,,0.01,WUHU21623XXSP,2013-07-16 15:57:00,
2013-07-16 12:02:00,89.5,75.5,30.07,WNW,292,2.5,2.5,63,0.00,,,0.01,WUHU21623XXSP,2013-07-16 16:02:00,
2013-07-16 12:07:00,89.7,75.7,30.07,ESE,112,2.3,2.5,63,0.00,,,0.01,WUHU21623XXSP,2013-07-16 16:07:00,
2013-07-16 12:12:00,89.7,75.3,30.07,WNW,292,2.3,2.5,62,0.00,,,0.01,WUHU21623XXSP,2013-07-16 16:12:00,
2013-07-16 12:17:00,89.9,75.9,30.07,WNW,292,2.3,2.3,63,0.00,,,0.01,WUHU21623XXSP,2013-07-16 16:17:00,
2013-07-16 12:22:00,90.1,75.1,30.07,WNW,292,2.4,2.5,61,0.00,,,0.01,WUHU21623XXSP,2013-07-16 16:22:00,
2013-07-16 12:29:00,89.7,74.3,30.07,NNW,337,4.0,4.0,60,0.00,,,0.01,WUHU21623XXSP,2013-07-16 16:29:00,
2013-07-16 12:36:00,89.7,73.8,30.07,WSW,247,22.4,22.4,59,0.00,,,0.01,WUHU21623XXSP,2013-07-16 16:36:00,
2013-07-16 12:41:00,90.1,73.6,30.07,WNW,292,1.8,26.6,58,0.00,,,0.01,WUHU21623XXSP,2013-07-16 16:41:00,
2013-07-16 12:46:00,90.1,73.6,30.07,NW,315,26.6,26.6,58,0.00,,,0.01,WUHU21623XXSP,2013-07-16 16:46:00,
2013-07-16 12:51:00,90.1,73.6,30.07,NW,315,1.6,26.6,58,0.00,,,0.01,WUHU21623XXSP,2013-07-16 16:51:00,
2013-07-16 12:56:00,90.3,73.3,30.07,West,270,4.0,4.0,57,0.00,,,0.01,WUHU21623XXSP,2013-07-16 16:56:00,
2013-07-16 13:01:00,90.4,73.4,30.06,SSW,202,2.0,4.0,57,0.00,,,0.01,WUHU21623XXSP,2013-07-16 17:01:00,
2013-07-16 13:06:00,90.6,73.6,30.06,WNW,292,2.7,2.7,57,0.00,,,0.01,WUHU21623XXSP,2013-07-16 17:06:00,
2013-07-16 13:11:00,90.8,73.2,30.06,WNW,292,2.7,2.7,56,0.00,,,0.01,WUHU21623XXSP,2013-07-16 17:11:00,
2013-07-16 13:16:00,90.1,73.1,30.06,SSW,202,2.7,2.7,57,0.00,,,0.01,WUHU21623XXSP,2013-07-16 17:16:00,
2013-07-16 13:21:00,90.3,73.3,30.06,NW,315,1.8,5.4,57,0.00,,,0.01,WUHU21623XXSP,2013-07-16 17:21:00,
2013-07-16 13:26:00,90.3,73.3,30.06,NNW,337,6.5,6.5,57,0.00,,,0.01,WUHU21623XXSP,2013-07-16 17:26:00,
2013-07-16 13:31:00,90.4,73.4,30.06,NW,315,2.9,6.5,57,0.00,,,0.01,WUHU21623XXSP,2013-07-16 17:31:00,
2013-07-16 13:36:00,90.4,72.8,30.06,NNW,337,2.5,2.9,56,0.00,,,0.01,WUHU21623XXSP,2013-07-16 17:36:00,
2013-07-16 13:41:00,90.3,73.3,30.06,NNW,337,2.0,2.5,57,0.00,,,0.01,WUHU21623XXSP,2013-07-16 17:41:00,
2013-07-16 13:46:00,90.3,73.3,30.06,East,90,26.2,26.2,57,0.00,,,0.01,WUHU21623XXSP,2013-07-16 17:46:00,
2013-07-16 13:51:00,90.4,73.4,30.05,NW,315,3.4,26.6,57,0.00,,,0.01,WUHU21623XXSP,2013-07-16 17:51:00,
2013-07-16 13:56:00,90.3,73.3,30.05,WNW,292,17.4,26.6,57,0.00,,,0.01,WUHU21623XXSP,2013-07-16 17:56:00,
2013-07-16 14:01:00,90.4,73.4,30.05,WSW,247,30.4,30.4,57,0.00,,,0.01,WUHU21623XXSP,2013-07-16 18:01:00,
2013-07-16 14:06:00,90.6,74.1,30.05,SE,135,1.8,30.4,58,0.00,,,0.01,WUHU21623XXSP,2013-07-16 18:06:00,
2013-07-16 14:11:00,91.3,74.7,30.04,SSE,157,2.2,2.2,58,0.00,,,0.01,WUHU21623XXSP,2013-07-16 18:11:00,
2013-07-16 14:16:00,91.9,75.3,30.04,WSW,247,2.0,2.2,58,0.00,,,0.01,WUHU21623XXSP,2013-07-16 18:16:00,
2013-07-16 14:21:00,91.9,74.8,30.04,SW,225,0.0,2.0,57,0.00,,,0.01,WUHU21623XXSP,2013-07-16 18:21:00,
2013-07-16 14:26:00,92.2,74.5,30.04,WNW,292,2.2,2.2,56,0.00,,,0.01,WUHU21623XXSP,2013-07-16 18:26:00,
2013-07-16 14:31:00,92.2,74.0,30.04,South,180,2.9,2.9,55,0.00,,,0.01,WUHU21623XXSP,2013-07-16 18:31:00,
2013-07-16 14:36:00,92.4,73.6,30.04,WNW,292,2.0,2.9,54,0.00,,,0.01,WUHU21623XXSP,2013-07-16 18:36:00,
2013-07-16 14:41:00,92.2,73.4,30.04,North,0,2.0,2.0,54,0.00,,,0.01,WUHU21623XXSP,2013-07-16 18:41:00,
2013-07-16 14:46:00,92.1,73.3,30.04,SW,225,2.5,2.5,54,0.00,,,0.01,WUHU21623XXSP,2013-07-16 18:46:00,
2013-07-16 14:51:00,92.1,73.9,30.04,NNW,337,2.2,2.5,55,0.00,,,0.01,WUHU21623XXSP,2013-07-16 18:51:00,
2013-07-16 14:56:00,92.2,73.4,30.04,SSW,202,1.1,2.2,54,0.00,,,0.01,WUHU21623XXSP,2013-07-16 18:56:00,
2013-07-16 15:01:00,92.2,74.5,30.03,West,270,1.8,1.9,56,0.00,,,0.01,WUHU21623XXSP,2013-07-16 19:01:00,
2013-07-16 15:06:00,92.2,74.5,30.03,WSW,247,2.0,3.8,56,0.00,,,0.01,WUHU21623XXSP,2013-07-16 19:06:00,
2013-07-16 15:11:00,92.1,73.9,30.03,West,270,2.9,3.8,55,0.00,,,0.01,WUHU21623XXSP,2013-07-16 19:11:00,
2013-07-16 15:16:00,91.5,73.3,30.04,SW,225,2.5,2.9,55,0.00,,,0.01,WUHU21623XXSP,2013-07-16 19:16:00,
2013-07-16 15:21:00,91.0,73.4,30.03,West,270,2.7,2.7,56,0.00,,,0.01,WUHU21623XXSP,2013-07-16 19:21:00,
2013-07-16 15:26:00,91.0,73.9,30.03,WSW,247,2.5,2.7,57,0.00,,,0.01,WUHU21623XXSP,2013-07-16 19:26:00,
2013-07-16 15:31:00,90.6,73.6,30.03,South,180,2.3,2.5,57,0.00,,,0.01,WUHU21623XXSP,2013-07-16 19:31:00,
2013-07-16 15:36:00,90.4,73.4,30.03,West,270,2.0,2.3,57,0.00,,,0.01,WUHU21623XXSP,2013-07-16 19:36:00,
2013-07-16 15:41:00,90.4,73.9,30.03,SSW,202,2.2,3.8,58,0.00,,,0.01,WUHU21623XXSP,2013-07-16 19:41:00,
2013-07-16 15:46:00,90.4,74.4,30.03,SSW,202,2.7,3.8,59,0.00,,,0.01,WUHU21623XXSP,2013-07-16 19:46:00,
2013-07-16 15:51:00,90.6,74.6,30.03,SW,225,2.7,2.9,59,0.00,,,0.01,WUHU21623XXSP,2013-07-16 19:51:00,
2013-07-16 15:56:00,91.0,75.0,30.03,West,270,3.4,14.1,59,0.00,,,0.01,WUHU21623XXSP,2013-07-16 19:56:00,
2013-07-16 16:01:00,91.0,74.5,30.03,SSW,202,27.3,28.2,58,0.00,,,0.01,WUHU21623XXSP,2013-07-16 20:01:00,
2013-07-16 16:06:00,91.0,75.0,30.03,SSW,202,3.4,28.2,59,0.00,,,0.01,WUHU21623XXSP,2013-07-16 20:06:00,
2013-07-16 16:13:00,90.6,74.6,30.03,SW,225,5.1,26.6,59,0.00,,,0.01,WUHU21623XXSP,2013-07-16 20:13:00,
2013-07-16 16:20:00,90.8,74.8,30.02,West,270,2.7,5.1,59,0.00,,,0.01,WUHU21623XXSP,2013-07-16 20:20:00,
2013-07-16 16:26:00,91.9,75.8,30.02,WNW,292,0.4,2.7,59,0.00,,,0.01,WUHU21623XXSP,2013-07-16 20:26:00,
2013-07-16 16:31:00,92.1,76.0,30.02,SSW,202,1.8,1.8,59,0.00,,,0.01,WUHU21623XXSP,2013-07-16 20:31:00,
2013-07-16 16:39:00,92.8,76.2,30.02,South,180,3.8,3.8,58,0.00,,,0.01,WUHU21623XXSP,2013-07-16 20:39:00,
2013-07-16 16:44:00,93.0,75.8,30.02,South,180,4.9,4.9,57,0.00,,,0.01,WUHU21623XXSP,2013-07-16 20:44:00,
2013-07-16 16:49:00,93.0,75.8,30.02,SW,225,26.4,26.4,57,0.00,,,0.01,WUHU21623XXSP,2013-07-16 20:49:00,
2013-07-16 16:54:00,93.0,75.8,30.02,West,270,26.4,26.4,57,0.00,,,0.01,WUHU21623XXSP,2013-07-16 20:54:00,
2013-07-16 16:59:00,92.8,75.6,30.02,South,180,2.2,26.4,57,0.00,,,0.01,WUHU21623XXSP,2013-07-16 20:59:00,
2013-07-16 17:04:00,92.6,76.0,30.02,South,180,4.5,4.5,58,0.00,,,0.01,WUHU21623XXSP,2013-07-16 21:04:00,
2013-07-16 17:09:00,92.6,76.0,30.01,SW,225,5.6,5.6,58,0.00,,,0.01,WUHU21623XXSP,2013-07-16 21:09:00,
2013-07-16 17:14:00,92.8,76.2,30.02,SW,225,5.4,5.6,58,0.00,,,0.01,WUHU21623XXSP,2013-07-16 21:14:00,
2013-07-16 17:19:00,92.6,75.4,30.01,SSW,202,26.6,26.6,57,0.00,,,0.01,WUHU21623XXSP,2013-07-16 21:19:00,
2013-07-16 17:24:00,92.6,76.0,30.01,SSW,202,2.5,26.6,58,0.00,,,0.01,WUHU21623XXSP,2013-07-16 21:24:00,
2013-07-16 17:29:00,92.4,75.8,30.01,SW,225,1.3,26.6,58,0.00,,,0.01,WUHU21623XXSP,2013-07-16 21:29:00,
2013-07-16 17:34:00,92.2,76.1,30.01,SSW,202,5.8,5.8,59,0.00,,,0.01,WUHU21623XXSP,2013-07-16 21:34:00,
2013-07-16 17:46:00,91.9,75.8,30.01,SW,225,4.9,4.9,59,0.00,,,0.01,WUHU21623XXSP,2013-07-16 21:46:00,
2013-07-16 17:51:00,92.1,76.0,30.01,SW,225,27.3,27.3,59,0.00,,,0.01,WUHU21623XXSP,2013-07-16 21:51:00,
2013-07-16 17:56:00,92.2,76.1,30.01,SSW,202,8.1,27.3,59,0.00,,,0.01,WUHU21623XXSP,2013-07-16 21:56:00,
2013-07-16 18:01:00,92.2,75.6,30.01,South,180,5.4,8.1,58,0.00,,,0.01,WUHU21623XXSP,2013-07-16 22:01:00,
2013-07-16 18:07:00,91.9,74.8,30.01,SSW,202,3.6,5.4,57,0.00,,,0.01,WUHU21623XXSP,2013-07-16 22:07:00,
2013-07-16 18:12:00,91.9,74.2,30.01,South,180,3.1,5.1,56,0.00,,,0.01,WUHU21623XXSP,2013-07-16 22:12:00,
2013-07-16 18:18:00,91.5,73.9,30.00,SSW,202,1.6,26.6,56,0.00,,,0.01,WUHU21623XXSP,2013-07-16 22:18:00,
2013-07-16 18:23:00,91.3,74.2,30.00,SW,225,2.0,26.6,57,0.00,,,0.01,WUHU21623XXSP,2013-07-16 22:23:00,
2013-07-16 18:29:00,91.3,74.2,30.01,SSW,202,2.2,2.2,57,0.00,,,0.01,WUHU21623XXSP,2013-07-16 22:29:00,
2013-07-16 18:34:00,91.2,74.1,30.01,SSE,157,2.7,2.7,57,0.00,,,0.01,WUHU21623XXSP,2013-07-16 22:34:00,
2013-07-16 18:40:00,91.0,73.4,30.01,SW,225,3.1,3.1,56,0.00,,,0.01,WUHU21623XXSP,2013-07-16 22:40:00,
2013-07-16 18:48:00,90.6,73.6,30.01,SSW,202,4.5,4.5,57,0.00,,,0.01,WUHU21623XXSP,2013-07-16 22:48:00,
2013-07-16 18:53:00,90.4,73.4,30.01,South,180,4.9,4.9,57,0.00,,,0.01,WUHU21623XXSP,2013-07-16 22:53:00,
2013-07-16 18:58:00,90.3,73.8,30.01,WNW,292,26.6,26.6,58,0.00,,,0.01,WUHU21623XXSP,2013-07-16 22:58:00,
2013-07-16 19:03:00,90.1,73.6,30.01,WNW,292,2.7,26.6,58,0.00,,,0.01,WUHU21623XXSP,2013-07-16 23:03:00,
2013-07-16 19:09:00,89.7,73.2,30.01,SW,225,15.7,15.7,58,0.00,,,0.01,WUHU21623XXSP,2013-07-16 23:09:00,
2013-07-16 19:14:00,89.7,73.8,30.01,WNW,292,26.6,26.6,59,0.00,,,0.01,WUHU21623XXSP,2013-07-16 23:14:00,
2013-07-16 19:19:00,89.5,73.6,30.01,WSW,247,15.2,26.6,59,0.00,,,0.01,WUHU21623XXSP,2013-07-16 23:19:00,
2013-07-16 19:24:00,89.0,73.1,30.01,South,180,24.8,26.8,59,0.00,,,0.01,WUHU21623XXSP,2013-07-16 23:24:00,
2013-07-16 19:29:00,88.8,72.9,30.01,SSW,202,4.3,26.8,59,0.00,,,0.01,WUHU21623XXSP,2013-07-16 23:29:00,
2013-07-16 19:34:00,88.6,73.2,30.01,West,270,26.2,26.6,60,0.00,,,0.01,WUHU21623XXSP,2013-07-16 23:34:00,
2013-07-16 19:39:00,88.6,73.2,30.01,South,180,4.5,26.6,60,0.00,,,0.01,WUHU21623XXSP,2013-07-16 23:39:00,
2013-07-16 19:44:00,88.3,73.4,30.01,SSW,202,0.4,4.5,61,0.00,,,0.01,WUHU21623XXSP,2013-07-16 23:44:00,
2013-07-16 19:49:00,88.3,73.4,30.01,West,270,3.1,3.1,61,0.00,,,0.01,WUHU21623XXSP,2013-07-16 23:49:00,
2013-07-16 19:54:00,88.1,73.2,30.01,SSW,202,5.1,21.9,61,0.00,,,0.01,WUHU21623XXSP,2013-07-16 23:54:00,
2013-07-16 19:59:00,87.9,73.5,30.01,West,270,2.2,21.9,62,0.00,,,0.01,WUHU21623XXSP,2013-07-16 23:59:00,
2013-07-16 20:04:00,87.4,73.1,30.01,South,180,1.6,3.1,62,0.00,,,0.01,WUHU21623XXSP,2013-07-17 00:04:00,
2013-07-16 20:09:00,87.2,73.4,30.01,South,180,1.6,3.1,63,0.00,,,0.01,WUHU21623XXSP,2013-07-17 00:09:00,
2013-07-16 20:14:00,86.8,73.0,30.01,SSW,202,4.5,4.5,63,0.00,,,0.01,WUHU21623XXSP,2013-07-17 00:14:00,
2013-07-16 20:19:00,86.8,73.0,30.02,WSW,247,0.0,26.2,63,0.00,,,0.01,WUHU21623XXSP,2013-07-17 00:19:00,
2013-07-16 20:24:00,86.5,72.7,30.02,SW,225,19.5,26.2,63,0.00,,,0.01,WUHU21623XXSP,2013-07-17 00:24:00,
2013-07-16 20:29:00,86.3,73.0,30.02,SSW,202,24.4,24.4,64,0.00,,,0.01,WUHU21623XXSP,2013-07-17 00:29:00,
2013-07-16 20:34:00,86.1,72.8,30.01,WSW,247,0.0,24.4,64,0.00,,,0.01,WUHU21623XXSP,2013-07-17 00:34:00,
2013-07-16 20:39:00,85.9,72.6,30.01,SSW,202,2.9,2.9,64,0.00,,,0.01,WUHU21623XXSP,2013-07-17 00:39:00,
2013-07-16 20:44:00,85.6,72.8,30.01,South,180,7.6,7.6,65,0.00,,,0.01,WUHU21623XXSP,2013-07-17 00:44:00,
2013-07-16 20:49:00,85.4,72.6,30.01,SW,225,2.0,7.6,65,0.00,,,0.01,WUHU21623XXSP,2013-07-17 00:49:00,
2013-07-16 20:55:00,85.0,72.6,30.02,SSW,202,0.0,2.0,66,0.00,,,0.01,WUHU21623XXSP,2013-07-17 00:55:00,
2013-07-16 21:00:00,84.9,73.4,30.01,WSW,247,0.0,0.0,68,0.00,,,0.01,WUHU21623XXSP,2013-07-17 01:00:00,
2013-07-16 21:05:00,84.3,72.8,30.02,SSW,202,0.0,0.0,68,0.00,,,0.01,WUHU21623XXSP,2013-07-17 01:05:00,
2013-07-16 21:12:00,83.8,72.4,30.01,WSW,247,0.0,0.0,68,0.00,,,0.01,WUHU21623XXSP,2013-07-17 01:12:00,
2013-07-16 21:17:00,83.4,72.4,30.01,WSW,247,0.0,0.0,69,0.00,,,0.01,WUHU21623XXSP,2013-07-17 01:17:00,
2013-07-16 21:22:00,83.4,72.4,30.01,WSW,247,0.0,0.0,69,0.00,,,0.01,WUHU21623XXSP,2013-07-17 01:22:00,
2013-07-16 21:27:00,82.9,72.3,30.01,WSW,247,0.0,0.0,70,0.00,,,0.01,WUHU21623XXSP,2013-07-17 01:27:00,
2013-07-16 21:32:00,82.7,72.2,30.01,SSW,202,0.0,0.0,70,0.00,,,0.01,WUHU21623XXSP,2013-07-17 01:32:00,
2013-07-16 21:37:00,82.5,72.0,30.01,SSW,202,0.0,0.0,70,0.00,,,0.01,WUHU21623XXSP,2013-07-17 01:37:00,
2013-07-16 21:42:00,82.3,72.2,30.01,SW,225,0.0,0.0,71,0.00,,,0.01,WUHU21623XXSP,2013-07-17 01:42:00,
2013-07-16 21:47:00,82.0,71.9,30.01,WSW,247,0.0,0.0,71,0.00,,,0.01,WUHU21623XXSP,2013-07-17 01:47:00,
2013-07-16 21:52:00,81.8,71.7,30.02,WSW,247,0.0,0.0,71,0.00,,,0.01,WUHU21623XXSP,2013-07-17 01:52:00,
2013-07-16 21:57:00,81.6,71.9,30.02,WSW,247,0.0,0.0,72,0.00,,,0.01,WUHU21623XXSP,2013-07-17 01:57:00,
2013-07-16 22:02:00,81.4,71.7,30.02,SW,225,0.0,0.0,72,0.00,,,0.01,WUHU21623XXSP,2013-07-17 02:02:00,
2013-07-16 22:07:00,81.4,71.7,30.02,SW,225,0.0,0.0,72,0.00,,,0.01,WUHU21623XXSP,2013-07-17 02:07:00,
2013-07-16 22:12:00,81.1,71.8,30.02,SW,225,0.0,0.0,73,0.00,,,0.01,WUHU21623XXSP,2013-07-17 02:12:00,
2013-07-16 22:17:00,80.7,71.4,30.02,SW,225,2.7,2.7,73,0.00,,,0.01,WUHU21623XXSP,2013-07-17 02:17:00,
2013-07-16 22:22:00,80.7,71.4,30.03,WSW,247,0.0,2.7,73,0.00,,,0.01,WUHU21623XXSP,2013-07-17 02:22:00,
2013-07-16 22:27:00,80.5,71.6,30.03,WSW,247,0.0,0.0,74,0.00,,,0.01,WUHU21623XXSP,2013-07-17 02:27:00,
2013-07-16 22:32:00,80.4,71.5,30.03,WSW,247,0.0,0.0,74,0.00,,,0.01,WUHU21623XXSP,2013-07-17 02:32:00,
2013-07-16 22:37:00,80.0,71.2,30.03,WSW,247,0.0,0.0,74,0.00,,,0.01,WUHU21623XXSP,2013-07-17 02:37:00,
2013-07-16 22:42:00,79.8,71.3,30.03,SW,225,0.0,0.0,75,0.00,,,0.01,WUHU21623XXSP,2013-07-17 02:42:00,
2013-07-16 22:47:00,79.8,71.3,30.02,SW,225,0.0,0.0,75,0.00,,,0.01,WUHU21623XXSP,2013-07-17 02:47:00,
2013-07-16 22:56:00,79.5,71.4,30.03,SW,225,0.0,0.0,76,0.00,,,0.01,WUHU21623XXSP,2013-07-17 02:56:00,
2013-07-16 23:01:00,79.3,71.2,30.02,SW,225,0.0,0.0,76,0.00,,,0.01,WUHU21623XXSP,2013-07-17 03:01:00,
2013-07-16 23:06:00,79.1,71.0,30.03,SW,225,0.0,0.0,76,0.00,,,0.01,WUHU21623XXSP,2013-07-17 03:06:00,
2013-07-16 23:16:00,78.9,70.9,30.03,SW,225,0.0,0.0,76,0.00,,,0.01,WUHU21623XXSP,2013-07-17 03:16:00,
2013-07-16 23:21:00,78.7,70.7,30.02,SW,225,0.0,0.0,76,0.00,,,0.01,WUHU21623XXSP,2013-07-17 03:21:00,
2013-07-16 23:26:00,78.7,71.0,30.03,SW,225,0.0,0.0,77,0.00,,,0.01,WUHU21623XXSP,2013-07-17 03:26:00,
2013-07-16 23:33:00,78.2,70.9,30.03,SW,225,0.0,0.0,78,0.00,,,0.01,WUHU21623XXSP,2013-07-17 03:33:00,
2013-07-16 23:38:00,78.0,70.7,30.03,SW,225,0.0,0.0,78,0.00,,,0.01,WUHU21623XXSP,2013-07-17 03:38:00,
2013-07-16 23:43:00,77.8,70.5,30.03,SW,225,0.0,0.0,78,0.00,,,0.01,WUHU21623XXSP,2013-07-17 03:43:00,
2013-07-16 23:50:00,77.7,70.8,30.03,SW,225,0.0,0.0,79,0.00,,,0.01,WUHU21623XXSP,2013-07-17 03:50:00,
2013-07-16 23:55:00,77.5,70.6,30.03,SW,225,0.0,0.0,79,0.00,,,0.01,WUHU21623XXSP,2013-07-17 03:55:00,